sensor_id;sensor_type;location;lat;lon;timestamp;pressure;altitude;pressure_sealevel;temperature;humidity
62634;BME280;48704;50.534;6.442;2023-11-21T00:00:48;94870.56;;;5.33;100.00
62634;BME280;48704;50.534;6.442;2023-11-21T00:03:14;94884.06;;;5.31;100.00
62634;BME280;48704;50.534;6.442;2023-11-21T00:05:40;94879.16;;;5.35;100.00
62634;BME280;48704;50.534;6.442;2023-11-21T00:08:07;94881.94;;;5.35;100.00
62634;BME280;48704;50.534;6.442;2023-11-21T00:10:32;94882.69;;;5.36;100.00
62634;BME280;48704;50.534;6.442;2023-11-21T00:12:57;94885.94;;;5.16;100.00
62634;BME280;48704;50.534;6.442;2023-11-21T00:15:23;94882.84;;;5.32;100.00
62634;BME280;48704;50.534;6.442;2023-11-21T00:17:48;94882.84;;;5.32;100.00
62634;BME280;48704;50.534;6.442;2023-11-21T00:20:13;94882.53;;;5.40;100.00
62634;BME280;48704;50.534;6.442;2023-11-21T00:22:39;94883.31;;;5.40;100.00
62634;BME280;48704;50.534;6.442;2023-11-21T00:25:06;94885.63;;;5.42;100.00
62634;BME280;48704;50.534;6.442;2023-11-21T00:27:34;94882.53;;;5.40;100.00
62634;BME280;48704;50.534;6.442;2023-11-21T00:30:00;94884.84;;;5.32;100.00
62634;BME280;48704;50.534;6.442;2023-11-21T00:32:25;94888.38;;;5.32;100.00
62634;BME280;48704;50.534;6.442;2023-11-21T00:34:50;94891.88;;;5.24;100.00
62634;BME280;48704;50.534;6.442;2023-11-21T00:37:16;94902.78;;;5.27;100.00
62634;BME280;48704;50.534;6.442;2023-11-21T00:39:41;94898.97;;;5.16;100.00
62634;BME280;48704;50.534;6.442;2023-11-21T00:42:06;94895.41;;;5.06;100.00
62634;BME280;48704;50.534;6.442;2023-11-21T00:44:32;94895.69;;;4.90;100.00
62634;BME280;48704;50.534;6.442;2023-11-21T00:46:59;94895.06;;;4.86;100.00
62634;BME280;48704;50.534;6.442;2023-11-21T00:49:24;94905.81;;;4.93;100.00
62634;BME280;48704;50.534;6.442;2023-11-21T00:51:49;94901.25;;;5.08;100.00
62634;BME280;48704;50.534;6.442;2023-11-21T00:54:15;94897.75;;;5.17;100.00
62634;BME280;48704;50.534;6.442;2023-11-21T00:56:42;94902.16;;;5.05;100.00
62634;BME280;48704;50.534;6.442;2023-11-21T00:59:07;94894.19;;;5.07;100.00
62634;BME280;48704;50.534;6.442;2023-11-21T01:01:33;94898.19;;;5.06;100.00
62634;BME280;48704;50.534;6.442;2023-11-21T01:03:58;94904.31;;;5.10;100.00
62634;BME280;48704;50.534;6.442;2023-11-21T01:06:23;94905.38;;;5.22;100.00
62634;BME280;48704;50.534;6.442;2023-11-21T01:08:49;94924.25;;;5.05;100.00
62634;BME280;48704;50.534;6.442;2023-11-21T01:11:14;94921.03;;;5.07;100.00
62634;BME280;48704;50.534;6.442;2023-11-21T01:13:40;94924.56;;;5.07;100.00
62634;BME280;48704;50.534;6.442;2023-11-21T01:16:06;94931.00;;;5.04;100.00
62634;BME280;48704;50.534;6.442;2023-11-21T01:18:32;94932.53;;;4.96;100.00
62634;BME280;48704;50.534;6.442;2023-11-21T01:20:58;94931.78;;;5.14;100.00
62634;BME280;48704;50.534;6.442;2023-11-21T01:23:25;94935.94;;;5.09;100.00
62634;BME280;48704;50.534;6.442;2023-11-21T01:25:52;94935.56;;;4.89;100.00
62634;BME280;48704;50.534;6.442;2023-11-21T01:28:17;94933.72;;;4.77;100.00
62634;BME280;48704;50.534;6.442;2023-11-21T01:30:42;94940.13;;;4.74;100.00
62634;BME280;48704;50.534;6.442;2023-11-21T01:33:08;94932.81;;;4.80;100.00
62634;BME280;48704;50.534;6.442;2023-11-21T01:35:33;94944.28;;;4.78;100.00
62634;BME280;48704;50.534;6.442;2023-11-21T01:37:59;94936.16;;;4.75;100.00
62634;BME280;48704;50.534;6.442;2023-11-21T01:40:24;94936.47;;;4.77;100.00
62634;BME280;48704;50.534;6.442;2023-11-21T01:42:49;94947.97;;;4.75;100.00
62634;BME280;48704;50.534;6.442;2023-11-21T01:45:15;94942.91;;;4.74;100.00
62634;BME280;48704;50.534;6.442;2023-11-21T01:47:41;94944.72;;;4.67;100.00
62634;BME280;48704;50.534;6.442;2023-11-21T01:50:08;94947.44;;;4.58;100.00
62634;BME280;48704;50.534;6.442;2023-11-21T01:52:38;94955.19;;;4.42;100.00
62634;BME280;48704;50.534;6.442;2023-11-21T01:55:05;94953.38;;;4.48;100.00
62634;BME280;48704;50.534;6.442;2023-11-21T01:57:31;94952.00;;;4.52;100.00
62634;BME280;48704;50.534;6.442;2023-11-21T01:59:58;94951.41;;;4.57;100.00
62634;BME280;48704;50.534;6.442;2023-11-21T02:02:25;94954.41;;;4.72;100.00
62634;BME280;48704;50.534;6.442;2023-11-21T02:04:50;94956.81;;;4.61;100.00
62634;BME280;48704;50.534;6.442;2023-11-21T02:07:16;94957.81;;;4.45;100.00
62634;BME280;48704;50.534;6.442;2023-11-21T02:09:41;94954.13;;;4.48;100.00
62634;BME280;48704;50.534;6.442;2023-11-21T02:12:10;94964.25;;;4.51;100.00
62634;BME280;48704;50.534;6.442;2023-11-21T02:14:35;94964.00;;;4.58;100.00
62634;BME280;48704;50.534;6.442;2023-11-21T02:17:02;94966.53;;;4.75;100.00
62634;BME280;48704;50.534;6.442;2023-11-21T02:19:28;94967.75;;;4.83;100.00
62634;BME280;48704;50.534;6.442;2023-11-21T02:21:56;94978.09;;;4.60;100.00
62634;BME280;48704;50.534;6.442;2023-11-21T02:24:24;94976.97;;;4.80;100.00
62634;BME280;48704;50.534;6.442;2023-11-21T02:26:50;94980.91;;;4.69;100.00
62634;BME280;48704;50.534;6.442;2023-11-21T02:29:19;94979.38;;;4.68;100.00
62634;BME280;48704;50.534;6.442;2023-11-21T02:31:47;94978.75;;;4.64;100.00
62634;BME280;48704;50.534;6.442;2023-11-21T02:34:14;94986.19;;;4.55;100.00
62634;BME280;48704;50.534;6.442;2023-11-21T02:36:40;94975.97;;;4.64;100.00
62634;BME280;48704;50.534;6.442;2023-11-21T02:39:05;94985.06;;;4.74;100.00
62634;BME280;48704;50.534;6.442;2023-11-21T02:41:32;94979.69;;;4.70;100.00
62634;BME280;48704;50.534;6.442;2023-11-21T02:43:57;94984.22;;;4.55;100.00
62634;BME280;48704;50.534;6.442;2023-11-21T02:46:23;94987.41;;;4.54;100.00
62634;BME280;48704;50.534;6.442;2023-11-21T02:48:48;94980.81;;;4.51;100.00
62634;BME280;48704;50.534;6.442;2023-11-21T02:51:13;94993.25;;;4.56;100.00
62634;BME280;48704;50.534;6.442;2023-11-21T02:53:40;94981.53;;;4.74;100.00
62634;BME280;48704;50.534;6.442;2023-11-21T02:56:06;94983.63;;;4.60;100.00
62634;BME280;48704;50.534;6.442;2023-11-21T02:58:32;94979.66;;;4.61;100.00
62634;BME280;48704;50.534;6.442;2023-11-21T03:00:57;94986.84;;;4.59;100.00
62634;BME280;48704;50.534;6.442;2023-11-21T03:03:23;94992.50;;;4.55;100.00
62634;BME280;48704;50.534;6.442;2023-11-21T03:05:49;94983.63;;;4.60;100.00
62634;BME280;48704;50.534;6.442;2023-11-21T03:08:14;94986.03;;;4.49;100.00
62634;BME280;48704;50.534;6.442;2023-11-21T03:10:40;94978.59;;;4.68;100.00
62634;BME280;48704;50.534;6.442;2023-11-21T03:13:05;94984.56;;;4.66;100.00
62634;BME280;48704;50.534;6.442;2023-11-21T03:15:30;94990.03;;;4.57;100.00
62634;BME280;48704;50.534;6.442;2023-11-21T03:17:57;94983.72;;;4.79;100.00
62634;BME280;48704;50.534;6.442;2023-11-21T03:20:23;94992.91;;;4.85;100.00
62634;BME280;48704;50.534;6.442;2023-11-21T03:22:48;95000.41;;;4.75;100.00
62634;BME280;48704;50.534;6.442;2023-11-21T03:25:13;95007.59;;;4.73;100.00
62634;BME280;48704;50.534;6.442;2023-11-21T03:27:39;95011.75;;;4.77;100.00
62634;BME280;48704;50.534;6.442;2023-11-21T03:30:04;95015.56;;;4.70;100.00
62634;BME280;48704;50.534;6.442;2023-11-21T03:32:33;95024.78;;;4.77;100.00
62634;BME280;48704;50.534;6.442;2023-11-21T03:34:58;95026.59;;;4.70;100.00
62634;BME280;48704;50.534;6.442;2023-11-21T03:37:24;95026.97;;;4.82;100.00
62634;BME280;48704;50.534;6.442;2023-11-21T03:39:56;95033.72;;;4.81;100.00
62634;BME280;48704;50.534;6.442;2023-11-21T03:42:21;95031.13;;;4.55;100.00
62634;BME280;48704;50.534;6.442;2023-11-21T03:44:46;95032.31;;;4.45;100.00
62634;BME280;48704;50.534;6.442;2023-11-21T03:47:12;95034.56;;;4.68;100.00
62634;BME280;48704;50.534;6.442;2023-11-21T03:49:37;95033.66;;;4.72;100.00
62634;BME280;48704;50.534;6.442;2023-11-21T03:52:03;95037.56;;;4.92;100.00
62634;BME280;48704;50.534;6.442;2023-11-21T03:54:28;95039.81;;;4.76;100.00
62634;BME280;48704;50.534;6.442;2023-11-21T03:56:54;95030.13;;;4.71;100.00
62634;BME280;48704;50.534;6.442;2023-11-21T03:59:19;95039.03;;;4.75;100.00
62634;BME280;48704;50.534;6.442;2023-11-21T04:01:44;95048.31;;;4.59;100.00
62634;BME280;48704;50.534;6.442;2023-11-21T04:04:09;95056.38;;;4.76;100.00
62634;BME280;48704;50.534;6.442;2023-11-21T04:06:35;95049.94;;;4.79;100.00
62634;BME280;48704;50.534;6.442;2023-11-21T04:09:02;95059.34;;;4.59;100.00
62634;BME280;48704;50.534;6.442;2023-11-21T04:11:29;95058.31;;;4.66;100.00
62634;BME280;48704;50.534;6.442;2023-11-21T04:13:55;95060.94;;;4.69;100.00
62634;BME280;48704;50.534;6.442;2023-11-21T04:16:20;95064.97;;;4.78;100.00
62634;BME280;48704;50.534;6.442;2023-11-21T04:18:45;95064.53;;;4.88;100.00
62634;BME280;48704;50.534;6.442;2023-11-21T04:21:10;95065.91;;;4.84;100.00
62634;BME280;48704;50.534;6.442;2023-11-21T04:23:36;95060.63;;;4.67;100.00
62634;BME280;48704;50.534;6.442;2023-11-21T04:26:01;95064.22;;;4.55;100.00
62634;BME280;48704;50.534;6.442;2023-11-21T04:28:27;95062.03;;;4.72;100.00
62634;BME280;48704;50.534;6.442;2023-11-21T04:30:52;95070.31;;;4.72;100.00
62634;BME280;48704;50.534;6.442;2023-11-21T04:33:18;95069.44;;;4.84;100.00
62634;BME280;48704;50.534;6.442;2023-11-21T04:35:43;95074.53;;;4.95;100.00
62634;BME280;48704;50.534;6.442;2023-11-21T04:38:08;95074.69;;;4.91;100.00
62634;BME280;48704;50.534;6.442;2023-11-21T04:40:33;95075.13;;;4.81;100.00
62634;BME280;48704;50.534;6.442;2023-11-21T04:42:59;95079.09;;;4.80;100.00
62634;BME280;48704;50.534;6.442;2023-11-21T04:45:24;95075.72;;;4.85;100.00
62634;BME280;48704;50.534;6.442;2023-11-21T04:47:50;95076.34;;;4.89;100.00
62634;BME280;48704;50.534;6.442;2023-11-21T04:50:15;95081.84;;;4.80;100.00
62634;BME280;48704;50.534;6.442;2023-11-21T04:52:40;95086.03;;;4.62;100.00
62634;BME280;48704;50.534;6.442;2023-11-21T04:55:06;95078.34;;;4.57;100.00
62634;BME280;48704;50.534;6.442;2023-11-21T04:57:35;95081.03;;;4.48;100.00
62634;BME280;48704;50.534;6.442;2023-11-21T05:00:00;95077.88;;;4.81;100.00
62634;BME280;48704;50.534;6.442;2023-11-21T05:02:25;95079.03;;;4.70;100.00
62634;BME280;48704;50.534;6.442;2023-11-21T05:04:51;95077.56;;;4.79;100.00
62634;BME280;48704;50.534;6.442;2023-11-21T05:07:16;95084.06;;;4.94;100.00
62634;BME280;48704;50.534;6.442;2023-11-21T05:09:44;95084.63;;;4.80;100.00
62634;BME280;48704;50.534;6.442;2023-11-21T05:12:11;95090.91;;;4.58;100.00
62634;BME280;48704;50.534;6.442;2023-11-21T05:14:36;95085.91;;;4.66;100.00
62634;BME280;48704;50.534;6.442;2023-11-21T05:17:02;95090.44;;;4.82;100.00
62634;BME280;48704;50.534;6.442;2023-11-21T05:19:29;95093.34;;;4.56;100.00
62634;BME280;48704;50.534;6.442;2023-11-21T05:21:54;95099.72;;;4.66;100.00
62634;BME280;48704;50.534;6.442;2023-11-21T05:24:20;95099.97;;;4.90;100.00
62634;BME280;48704;50.534;6.442;2023-11-21T05:26:45;95098.03;;;4.99;100.00
62634;BME280;48704;50.534;6.442;2023-11-21T05:29:10;95103.63;;;4.78;100.00
62634;BME280;48704;50.534;6.442;2023-11-21T05:31:36;95109.34;;;4.61;100.00
62634;BME280;48704;50.534;6.442;2023-11-21T05:34:02;95118.84;;;4.60;100.00
62634;BME280;48704;50.534;6.442;2023-11-21T05:36:28;95121.19;;;4.49;100.00
62634;BME280;48704;50.534;6.442;2023-11-21T05:38:53;95123.03;;;4.43;100.00
62634;BME280;48704;50.534;6.442;2023-11-21T05:41:18;95124.09;;;4.46;100.00
62634;BME280;48704;50.534;6.442;2023-11-21T05:43:44;95113.38;;;4.69;100.00
62634;BME280;48704;50.534;6.442;2023-11-21T05:46:09;95122.44;;;5.01;100.00
62634;BME280;48704;50.534;6.442;2023-11-21T05:48:35;95118.19;;;4.78;100.00
62634;BME280;48704;50.534;6.442;2023-11-21T05:51:06;95121.28;;;4.89;100.00
62634;BME280;48704;50.534;6.442;2023-11-21T05:53:31;95122.06;;;4.90;100.00
62634;BME280;48704;50.534;6.442;2023-11-21T05:55:57;95133.91;;;4.68;100.00
62634;BME280;48704;50.534;6.442;2023-11-21T05:58:22;95135.19;;;4.55;100.00
62634;BME280;48704;50.534;6.442;2023-11-21T06:00:48;95138.53;;;4.72;100.00
62634;BME280;48704;50.534;6.442;2023-11-21T06:03:13;95141.47;;;4.55;100.00
62634;BME280;48704;50.534;6.442;2023-11-21T06:05:38;95146.03;;;4.49;100.00
62634;BME280;48704;50.534;6.442;2023-11-21T06:08:04;95149.19;;;4.82;100.00
62634;BME280;48704;50.534;6.442;2023-11-21T06:10:29;95149.19;;;4.60;100.00
62634;BME280;48704;50.534;6.442;2023-11-21T06:12:54;95145.69;;;4.91;100.00
62634;BME280;48704;50.534;6.442;2023-11-21T06:15:20;95151.72;;;4.98;100.00
62634;BME280;48704;50.534;6.442;2023-11-21T06:17:47;95155.13;;;5.02;100.00
62634;BME280;48704;50.534;6.442;2023-11-21T06:20:15;95157.13;;;5.02;100.00
62634;BME280;48704;50.534;6.442;2023-11-21T06:22:45;95168.31;;;4.77;100.00
62634;BME280;48704;50.534;6.442;2023-11-21T06:25:11;95165.09;;;4.78;100.00
62634;BME280;48704;50.534;6.442;2023-11-21T06:27:40;95167.03;;;4.68;100.00
62634;BME280;48704;50.534;6.442;2023-11-21T06:30:06;95167.41;;;4.80;100.00
62634;BME280;48704;50.534;6.442;2023-11-21T06:32:32;95176.25;;;4.96;100.00
62634;BME280;48704;50.534;6.442;2023-11-21T06:34:57;95185.56;;;4.90;100.00
62634;BME280;48704;50.534;6.442;2023-11-21T06:37:26;95192.25;;;5.01;100.00
62634;BME280;48704;50.534;6.442;2023-11-21T06:39:52;95188.56;;;4.83;100.00
62634;BME280;48704;50.534;6.442;2023-11-21T06:42:17;95191.66;;;4.85;100.00
62634;BME280;48704;50.534;6.442;2023-11-21T06:44:44;95199.50;;;4.86;100.00
62634;BME280;48704;50.534;6.442;2023-11-21T06:47:10;95201.81;;;4.88;100.00
62634;BME280;48704;50.534;6.442;2023-11-21T06:49:35;95205.91;;;4.83;100.00
62634;BME280;48704;50.534;6.442;2023-11-21T06:52:01;95207.19;;;4.91;100.00
62634;BME280;48704;50.534;6.442;2023-11-21T06:54:28;95212.59;;;4.73;100.00
62634;BME280;48704;50.534;6.442;2023-11-21T06:56:53;95207.84;;;4.74;100.00
62634;BME280;48704;50.534;6.442;2023-11-21T06:59:18;95209.41;;;4.75;100.00
62634;BME280;48704;50.534;6.442;2023-11-21T07:01:43;95218.50;;;4.62;100.00
62634;BME280;48704;50.534;6.442;2023-11-21T07:04:09;95215.69;;;4.75;100.00
62634;BME280;48704;50.534;6.442;2023-11-21T07:06:35;95221.97;;;4.97;100.00
62634;BME280;48704;50.534;6.442;2023-11-21T07:09:00;95232.75;;;5.04;100.00
62634;BME280;48704;50.534;6.442;2023-11-21T07:11:26;95232.63;;;5.08;100.00
62634;BME280;48704;50.534;6.442;2023-11-21T07:13:52;95234.34;;;4.93;100.00
62634;BME280;48704;50.534;6.442;2023-11-21T07:16:18;95234.81;;;4.91;100.00
62634;BME280;48704;50.534;6.442;2023-11-21T07:18:44;95241.09;;;4.92;100.00
62634;BME280;48704;50.534;6.442;2023-11-21T07:21:09;95234.44;;;5.02;100.00
62634;BME280;48704;50.534;6.442;2023-11-21T07:23:37;95239.31;;;4.98;100.00
62634;BME280;48704;50.534;6.442;2023-11-21T07:26:02;95256.25;;;4.65;100.00
62634;BME280;48704;50.534;6.442;2023-11-21T07:28:28;95263.06;;;4.74;100.00
62634;BME280;48704;50.534;6.442;2023-11-21T07:30:54;95272.56;;;4.73;100.00
62634;BME280;48704;50.534;6.442;2023-11-21T07:33:19;95276.53;;;4.93;100.00
62634;BME280;48704;50.534;6.442;2023-11-21T07:35:46;95269.75;;;5.07;100.00
62634;BME280;48704;50.534;6.442;2023-11-21T07:38:12;95269.72;;;4.85;100.00
62634;BME280;48704;50.534;6.442;2023-11-21T07:40:38;95271.38;;;4.83;100.00
62634;BME280;48704;50.534;6.442;2023-11-21T07:43:03;95262.38;;;5.04;100.00
62634;BME280;48704;50.534;6.442;2023-11-21T07:45:28;95267.31;;;5.09;100.00
62634;BME280;48704;50.534;6.442;2023-11-21T07:47:54;95271.22;;;5.21;100.00
62634;BME280;48704;50.534;6.442;2023-11-21T07:50:21;95275.28;;;5.07;100.00
62634;BME280;48704;50.534;6.442;2023-11-21T07:52:46;95291.03;;;4.85;100.00
62634;BME280;48704;50.534;6.442;2023-11-21T07:55:11;95288.22;;;4.76;100.00
62634;BME280;48704;50.534;6.442;2023-11-21T07:57:37;95291.31;;;4.78;100.00
62634;BME280;48704;50.534;6.442;2023-11-21T08:00:04;95296.31;;;4.70;100.00
62634;BME280;48704;50.534;6.442;2023-11-21T08:02:31;95302.69;;;4.80;100.00
62634;BME280;48704;50.534;6.442;2023-11-21T08:04:57;95302.69;;;4.80;100.00
62634;BME280;48704;50.534;6.442;2023-11-21T08:07:22;95300.69;;;5.02;100.00
62634;BME280;48704;50.534;6.442;2023-11-21T08:09:47;95305.50;;;4.89;100.00
62634;BME280;48704;50.534;6.442;2023-11-21T08:12:15;95300.47;;;5.09;100.00
62634;BME280;48704;50.534;6.442;2023-11-21T08:14:40;95310.78;;;4.96;100.00
62634;BME280;48704;50.534;6.442;2023-11-21T08:17:06;95313.53;;;4.96;100.00
62634;BME280;48704;50.534;6.442;2023-11-21T08:19:31;95330.38;;;5.11;100.00
62634;BME280;48704;50.534;6.442;2023-11-21T08:21:58;95322.78;;;5.24;100.00
62634;BME280;48704;50.534;6.442;2023-11-21T08:24:24;95322.53;;;5.31;100.00
62634;BME280;48704;50.534;6.442;2023-11-21T08:26:50;95334.75;;;5.43;100.00
62634;BME280;48704;50.534;6.442;2023-11-21T08:29:16;95336.09;;;5.38;100.00
62634;BME280;48704;50.534;6.442;2023-11-21T08:31:42;95343.25;;;5.48;100.00
62634;BME280;48704;50.534;6.442;2023-11-21T08:34:07;95342.16;;;5.46;100.00
62634;BME280;48704;50.534;6.442;2023-11-21T08:36:33;95349.41;;;5.09;100.00
62634;BME280;48704;50.534;6.442;2023-11-21T08:38:59;95357.72;;;4.96;100.00
62634;BME280;48704;50.534;6.442;2023-11-21T08:41:24;95361.59;;;4.86;100.00
62634;BME280;48704;50.534;6.442;2023-11-21T08:43:50;95359.75;;;5.17;100.00
62634;BME280;48704;50.534;6.442;2023-11-21T08:46:16;95355.69;;;5.31;100.00
62634;BME280;48704;50.534;6.442;2023-11-21T08:48:43;95360.53;;;5.18;100.00
62634;BME280;48704;50.534;6.442;2023-11-21T08:51:10;95360.66;;;5.14;100.00
62634;BME280;48704;50.534;6.442;2023-11-21T08:53:36;95365.16;;;5.43;100.00
62634;BME280;48704;50.534;6.442;2023-11-21T08:56:03;95367.53;;;5.31;100.00
62634;BME280;48704;50.534;6.442;2023-11-21T08:58:29;95372.47;;;5.36;100.00
62634;BME280;48704;50.534;6.442;2023-11-21T09:00:56;95379.09;;;5.39;100.00
62634;BME280;48704;50.534;6.442;2023-11-21T09:03:21;95381.22;;;5.57;100.00
62634;BME280;48704;50.534;6.442;2023-11-21T09:05:46;95378.97;;;5.64;100.00
62634;BME280;48704;50.534;6.442;2023-11-21T09:08:12;95391.00;;;5.49;100.00
62634;BME280;48704;50.534;6.442;2023-11-21T09:10:37;95388.72;;;5.34;100.00
62634;BME280;48704;50.534;6.442;2023-11-21T09:13:04;95399.53;;;5.42;100.00
62634;BME280;48704;50.534;6.442;2023-11-21T09:15:29;95393.50;;;5.56;100.00
62634;BME280;48704;50.534;6.442;2023-11-21T09:17:55;95398.34;;;5.30;100.00
62634;BME280;48704;50.534;6.442;2023-11-21T09:20:21;95394.44;;;5.62;100.00
62634;BME280;48704;50.534;6.442;2023-11-21T09:22:48;95401.59;;;5.72;100.00
62634;BME280;48704;50.534;6.442;2023-11-21T09:25:13;95409.31;;;5.55;100.00
62634;BME280;48704;50.534;6.442;2023-11-21T09:27:39;95406.22;;;5.75;100.00
62634;BME280;48704;50.534;6.442;2023-11-21T09:30:05;95415.22;;;5.88;100.00
62634;BME280;48704;50.534;6.442;2023-11-21T09:32:31;95417.00;;;5.60;100.00
62634;BME280;48704;50.534;6.442;2023-11-21T09:34:56;95417.66;;;5.86;100.00
62634;BME280;48704;50.534;6.442;2023-11-21T09:37:23;95407.00;;;5.97;100.00
62634;BME280;48704;50.534;6.442;2023-11-21T09:39:49;95421.16;;;5.99;100.00
62634;BME280;48704;50.534;6.442;2023-11-21T09:42:23;95418.69;;;5.80;100.00
62634;BME280;48704;50.534;6.442;2023-11-21T09:45:06;95425.78;;;5.81;100.00
62634;BME280;48704;50.534;6.442;2023-11-21T09:47:38;95423.78;;;5.81;100.00
62634;BME280;48704;50.534;6.442;2023-11-21T09:50:04;95423.13;;;5.55;100.00
62634;BME280;48704;50.534;6.442;2023-11-21T09:52:38;95429.72;;;5.58;100.00
62634;BME280;48704;50.534;6.442;2023-11-21T09:55:06;95431.56;;;5.95;100.00
62634;BME280;48704;50.534;6.442;2023-11-21T09:57:32;95430.59;;;6.11;100.00
62634;BME280;48704;50.534;6.442;2023-11-21T10:00:01;95423.25;;;5.95;100.00
62634;BME280;48704;50.534;6.442;2023-11-21T10:02:45;95431.56;;;5.74;100.00
62634;BME280;48704;50.534;6.442;2023-11-21T10:05:12;95425.25;;;5.73;100.00
62634;BME280;48704;50.534;6.442;2023-11-21T10:07:39;95427.50;;;5.87;100.00
62634;BME280;48704;50.534;6.442;2023-11-21T10:10:07;95429.50;;;6.09;100.00
62634;BME280;48704;50.534;6.442;2023-11-21T10:12:33;95426.41;;;6.07;100.00
62634;BME280;48704;50.534;6.442;2023-11-21T10:15:01;95428.66;;;6.21;100.00
62634;BME280;48704;50.534;6.442;2023-11-21T10:17:29;95427.19;;;5.85;100.00
62634;BME280;48704;50.534;6.442;2023-11-21T10:20:01;95432.00;;;6.16;100.00
62634;BME280;48704;50.534;6.442;2023-11-21T10:22:27;95432.41;;;5.83;100.00
62634;BME280;48704;50.534;6.442;2023-11-21T10:27:19;95434.59;;;6.10;100.00
62634;BME280;48704;50.534;6.442;2023-11-21T10:29:51;95429.50;;;6.09;100.00
62634;BME280;48704;50.534;6.442;2023-11-21T10:33:05;95434.16;;;5.90;100.00
62634;BME280;48704;50.534;6.442;2023-11-21T10:35:46;95427.81;;;6.11;100.00
62634;BME280;48704;50.534;6.442;2023-11-21T10:38:28;95422.88;;;6.37;100.00
62634;BME280;48704;50.534;6.442;2023-11-21T10:41:24;95436.78;;;6.95;100.00
62634;BME280;48704;50.534;6.442;2023-11-21T10:44:23;95435.22;;;6.45;100.00
62634;BME280;48704;50.534;6.442;2023-11-21T10:47:21;95443.06;;;6.87;100.00
62634;BME280;48704;50.534;6.442;2023-11-21T10:49:53;95441.03;;;6.78;100.00
62634;BME280;48704;50.534;6.442;2023-11-21T10:52:19;95440.25;;;6.78;100.00
62634;BME280;48704;50.534;6.442;2023-11-21T10:54:57;95449.16;;;6.72;100.00
62634;BME280;48704;50.534;6.442;2023-11-21T10:57:24;95445.47;;;6.66;100.00
62634;BME280;48704;50.534;6.442;2023-11-21T10:59:54;95457.50;;;6.82;100.00
62634;BME280;48704;50.534;6.442;2023-11-21T11:02:26;95452.59;;;6.86;100.00
62634;BME280;48704;50.534;6.442;2023-11-21T11:04:53;95462.78;;;6.89;100.00
62634;BME280;48704;50.534;6.442;2023-11-21T11:07:26;95453.06;;;6.84;100.00
62634;BME280;48704;50.534;6.442;2023-11-21T11:09:53;95451.13;;;7.03;100.00
62634;BME280;48704;50.534;6.442;2023-11-21T11:12:19;95458.97;;;7.04;100.00
62634;BME280;48704;50.534;6.442;2023-11-21T11:14:45;95459.00;;;7.23;100.00
62634;BME280;48704;50.534;6.442;2023-11-21T11:17:11;95453.00;;;7.15;100.00
62634;BME280;48704;50.534;6.442;2023-11-21T11:19:36;95443.19;;;7.32;100.00
62634;BME280;48704;50.534;6.442;2023-11-21T11:39:26;95454.88;;;7.27;100.00
62634;BME280;48704;50.534;6.442;2023-11-21T11:41:55;95460.44;;;7.36;100.00
62634;BME280;48704;50.534;6.442;2023-11-21T11:49:58;95470.88;;;7.23;100.00
62634;BME280;48704;50.534;6.442;2023-11-21T11:52:38;95476.03;;;7.80;100.00
62634;BME280;48704;50.534;6.442;2023-11-21T11:55:09;95479.25;;;8.05;100.00
62634;BME280;48704;50.534;6.442;2023-11-21T11:57:35;95478.47;;;8.05;100.00
62634;BME280;48704;50.534;6.442;2023-11-21T12:02:38;95482.00;;;7.96;100.00
62634;BME280;48704;50.534;6.442;2023-11-21T12:05:18;95487.22;;;7.49;100.00
62634;BME280;48704;50.534;6.442;2023-11-21T12:07:54;95488.81;;;7.68;100.00
62634;BME280;48704;50.534;6.442;2023-11-21T12:10:22;95490.47;;;7.84;100.00
62634;BME280;48704;50.534;6.442;2023-11-21T12:12:52;95491.13;;;7.69;100.00
62634;BME280;48704;50.534;6.442;2023-11-21T12:15:19;95496.47;;;7.55;100.00
62634;BME280;48704;50.534;6.442;2023-11-21T12:17:45;95494.34;;;7.86;100.00
62634;BME280;48704;50.534;6.442;2023-11-21T12:20:15;95492.34;;;7.78;100.00
62634;BME280;48704;50.534;6.442;2023-11-21T12:22:46;95495.88;;;7.69;100.00
62634;BME280;48704;50.534;6.442;2023-11-21T12:25:19;95495.78;;;7.05;100.00
62634;BME280;48704;50.534;6.442;2023-11-21T12:27:50;95494.31;;;6.51;100.00
62634;BME280;48704;50.534;6.442;2023-11-21T12:30:17;95497.97;;;6.79;100.00
62634;BME280;48704;50.534;6.442;2023-11-21T12:32:43;95499.00;;;6.63;100.00
62634;BME280;48704;50.534;6.442;2023-11-21T12:35:11;95494.78;;;6.90;100.00
62634;BME280;48704;50.534;6.442;2023-11-21T12:37:41;95496.09;;;6.76;100.00
62634;BME280;48704;50.534;6.442;2023-11-21T12:40:13;95491.00;;;6.65;100.00
62634;BME280;48704;50.534;6.442;2023-11-21T12:42:44;95500.84;;;6.66;100.00
62634;BME280;48704;50.534;6.442;2023-11-21T12:47:44;95493.34;;;7.25;100.00
62634;BME280;48704;50.534;6.442;2023-11-21T12:50:13;95490.53;;;7.07;100.00
62634;BME280;48704;50.534;6.442;2023-11-21T12:52:45;95494.38;;;7.10;100.00
62634;BME280;48704;50.534;6.442;2023-11-21T12:55:18;95501.81;;;6.82;100.00
62634;BME280;48704;50.534;6.442;2023-11-21T12:57:54;95503.69;;;6.85;100.00
62634;BME280;48704;50.534;6.442;2023-11-21T13:00:33;95506.53;;;7.03;100.00
62634;BME280;48704;50.534;6.442;2023-11-21T13:03:03;95510.81;;;6.95;100.00
62634;BME280;48704;50.534;6.442;2023-11-21T13:05:29;95510.44;;;7.24;100.00
62634;BME280;48704;50.534;6.442;2023-11-21T13:07:57;95510.38;;;7.05;100.00
62634;BME280;48704;50.534;6.442;2023-11-21T13:10:26;95508.97;;;6.61;100.00
62634;BME280;48704;50.534;6.442;2023-11-21T13:12:55;95506.38;;;6.66;100.00
62634;BME280;48704;50.534;6.442;2023-11-21T13:15:23;95513.69;;;6.82;100.00
62634;BME280;48704;50.534;6.442;2023-11-21T13:17:52;95513.72;;;7.41;100.00
62634;BME280;48704;50.534;6.442;2023-11-21T13:20:19;95517.63;;;7.12;100.00
62634;BME280;48704;50.534;6.442;2023-11-21T13:22:47;95527.97;;;6.81;100.00
62634;BME280;48704;50.534;6.442;2023-11-21T13:25:14;95531.16;;;7.01;100.00
62634;BME280;48704;50.534;6.442;2023-11-21T13:27:42;95533.94;;;7.10;100.00
62634;BME280;48704;50.534;6.442;2023-11-21T13:30:09;95538.28;;;7.20;100.00